createdAt,value
2018-02-10T00:00:52.313Z,997.64
2018-02-10T00:02:02.433Z,997.6
2018-02-10T00:03:12.497Z,997.62
2018-02-10T00:04:22.577Z,997.65
2018-02-10T00:05:32.648Z,997.67
2018-02-10T00:06:42.220Z,997.65
2018-02-10T00:07:52.272Z,997.61
2018-02-10T00:09:02.078Z,997.64
2018-02-10T00:10:12.142Z,997.63
2018-02-10T00:11:21.946Z,997.65
2018-02-10T00:12:31.751Z,997.65
2018-02-10T00:13:41.564Z,997.64
2018-02-10T00:14:51.626Z,997.63
2018-02-10T00:16:01.685Z,997.66
2018-02-10T00:17:11.803Z,997.63
2018-02-10T00:18:21.925Z,997.64
2018-02-10T00:19:32.049Z,997.67
2018-02-10T00:20:41.854Z,997.68
2018-02-10T00:21:51.905Z,997.66
2018-02-10T00:23:01.960Z,997.64
2018-02-10T00:24:11.487Z,997.68
2018-02-10T00:25:21.542Z,997.68
2018-02-10T00:26:31.334Z,997.67
2018-02-10T00:27:41.384Z,997.67
2018-02-10T00:28:51.169Z,997.64
2018-02-10T00:30:01.220Z,997.63
2018-02-10T00:31:11.293Z,997.64
2018-02-10T00:32:21.353Z,997.63
2018-02-10T00:33:31.400Z,997.62
2018-02-10T00:34:41.471Z,997.65
2018-02-10T00:35:51.510Z,997.6
2018-02-10T00:37:01.864Z,997.61
2018-02-10T00:38:11.944Z,997.62
2018-02-10T00:39:22.004Z,997.62
2018-02-10T00:40:32.059Z,997.62
2018-02-10T00:41:41.838Z,997.64
2018-02-10T00:42:51.623Z,997.6
2018-02-10T00:44:01.416Z,997.65
2018-02-10T00:45:11.464Z,997.63
2018-02-10T00:46:21.516Z,997.61
2018-02-10T00:47:31.299Z,997.64
2018-02-10T00:48:41.391Z,997.69
2018-02-10T00:49:51.425Z,997.62
2018-02-10T00:51:01.491Z,997.66
2018-02-10T00:52:11.267Z,997.64
2018-02-10T00:53:21.301Z,997.63
2018-02-10T00:54:31.349Z,997.66
2018-02-10T00:55:41.384Z,997.64
2018-02-10T00:56:51.155Z,997.71
2018-02-10T00:58:00.956Z,997.67
2018-02-10T00:59:11.073Z,997.63
2018-02-10T01:00:21.124Z,997.62
2018-02-10T01:01:31.171Z,997.62
2018-02-10T01:02:40.959Z,997.61
2018-02-10T01:03:51.002Z,997.62
2018-02-10T01:05:01.052Z,997.62
2018-02-10T01:06:11.145Z,997.63
2018-02-10T01:07:21.192Z,997.6
2018-02-10T01:08:31.239Z,997.59
2018-02-10T01:09:41.030Z,997.6
2018-02-10T01:10:50.816Z,997.62
2018-02-10T01:12:00.932Z,997.57
2018-02-10T01:13:10.969Z,997.59
2018-02-10T01:14:20.495Z,997.6
2018-02-10T01:15:30.293Z,997.58
2018-02-10T01:16:40.087Z,997.6
2018-02-10T01:17:50.127Z,997.6
2018-02-10T01:18:59.961Z,997.63
2018-02-10T01:20:09.741Z,997.58
2018-02-10T01:21:19.797Z,997.57
2018-02-10T01:22:29.880Z,997.56
2018-02-10T01:23:39.922Z,997.55
2018-02-10T01:24:49.763Z,997.54
2018-02-10T01:25:59.549Z,997.53
2018-02-10T01:27:09.586Z,997.55
2018-02-10T01:28:19.628Z,997.52
2018-02-10T01:29:29.472Z,997.5
2018-02-10T01:30:39.521Z,997.46
2018-02-10T01:31:49.577Z,997.5
2018-02-10T01:32:59.105Z,997.52
2018-02-10T01:34:08.882Z,997.5
2018-02-10T01:35:18.666Z,997.51
2018-02-10T01:36:28.506Z,997.51
2018-02-10T01:37:38.547Z,997.5
2018-02-10T01:38:48.593Z,997.53
2018-02-10T01:39:58.374Z,997.5
2018-02-10T01:41:08.441Z,997.53
2018-02-10T01:42:18.493Z,997.54
2018-02-10T01:43:28.522Z,997.5
2018-02-10T01:44:38.558Z,997.51
2018-02-10T01:45:48.339Z,997.49
2018-02-10T01:46:58.383Z,997.53
2018-02-10T01:48:08.430Z,997.51
2018-02-10T01:49:18.274Z,997.5
2018-02-10T01:50:28.324Z,997.5
2018-02-10T01:51:38.114Z,997.47
2018-02-10T01:52:47.959Z,997.51
2018-02-10T01:53:58.015Z,997.48
2018-02-10T01:55:08.073Z,997.54
2018-02-10T01:56:17.855Z,997.52
2018-02-10T01:57:28.714Z,997.51
2018-02-10T01:58:38.499Z,997.51
2018-02-10T01:59:48.533Z,997.55
2018-02-10T02:00:58.631Z,997.51
2018-02-10T02:02:08.694Z,997.53
2018-02-10T02:03:18.474Z,997.55
2018-02-10T02:04:28.308Z,997.54
2018-02-10T02:05:38.084Z,997.53
2018-02-10T02:06:47.864Z,997.57
2018-02-10T02:07:57.914Z,997.54
2018-02-10T02:09:07.933Z,997.54
2018-02-10T02:10:18.018Z,997.57
2018-02-10T02:11:28.072Z,997.57
2018-02-10T02:12:37.852Z,997.52
2018-02-10T02:13:47.912Z,997.52
2018-02-10T02:14:57.958Z,997.56
2018-02-10T02:16:08.021Z,997.55
2018-02-10T02:17:18.055Z,997.54
2018-02-10T02:18:28.136Z,997.54
2018-02-10T02:19:38.185Z,997.56
2018-02-10T02:20:48.235Z,997.55
2018-02-10T02:21:58.277Z,997.55
2018-02-10T02:23:08.323Z,997.54
2018-02-10T02:24:18.092Z,997.57
2018-02-10T02:25:28.143Z,997.56
2018-02-10T02:26:37.660Z,997.6
2018-02-10T02:27:47.702Z,997.58
2018-02-10T02:28:57.485Z,997.62
2018-02-10T02:30:07.517Z,997.62
2018-02-10T02:31:17.578Z,997.63
2018-02-10T02:32:27.373Z,997.63
2018-02-10T02:33:37.231Z,997.61
2018-02-10T02:34:47.282Z,997.6
2018-02-10T02:35:57.375Z,997.65
2018-02-10T02:37:07.453Z,997.62
2018-02-10T02:38:17.510Z,997.6
2018-02-10T02:39:27.304Z,997.61
2018-02-10T02:40:37.344Z,997.63
2018-02-10T02:41:47.382Z,997.64
2018-02-10T02:42:57.174Z,997.58
2018-02-10T02:44:07.228Z,997.64
2018-02-10T02:45:16.753Z,997.66
2018-02-10T02:46:26.554Z,997.65
2018-02-10T02:47:36.591Z,997.64
2018-02-10T02:48:46.138Z,997.65
2018-02-10T02:49:55.949Z,997.71
2018-02-10T02:51:05.787Z,997.68
2018-02-10T02:52:15.580Z,997.71
2018-02-10T02:53:25.365Z,997.71
2018-02-10T02:54:35.394Z,997.74
2018-02-10T02:55:45.205Z,997.75
2018-02-10T02:56:55.320Z,997.77
2018-02-10T02:58:05.449Z,997.77
2018-02-10T02:59:15.519Z,997.81
2018-02-10T03:00:25.562Z,997.83
2018-02-10T03:01:35.616Z,997.82
2018-02-10T03:02:45.404Z,997.83
2018-02-10T03:03:55.438Z,997.81
2018-02-10T03:35:32.078Z,998.04
2018-02-10T03:36:42.107Z,998.03
2018-02-10T03:37:52.201Z,998.02
2018-02-10T03:39:02.249Z,998.06
2018-02-10T03:40:11.570Z,998.11
2018-02-10T03:41:21.639Z,998.08
2018-02-10T03:42:31.692Z,998.08
2018-02-10T03:43:41.724Z,998.11
2018-02-10T03:44:51.772Z,998.13
2018-02-10T03:46:01.569Z,998.16
2018-02-10T03:47:11.618Z,998.17
2018-02-10T03:48:21.658Z,998.17
2018-02-10T03:49:31.698Z,998.18
2018-02-10T03:50:41.741Z,998.23
2018-02-10T03:51:51.793Z,998.18
2018-02-10T03:53:01.831Z,998.23
2018-02-10T03:54:11.866Z,998.24
2018-02-10T03:55:21.909Z,998.29
2018-02-10T03:56:31.701Z,998.31
2018-02-10T03:57:41.500Z,998.25
2018-02-10T03:58:51.553Z,998.28
2018-02-10T04:00:01.378Z,998.33
2018-02-10T04:01:11.159Z,998.33
2018-02-10T04:02:21.196Z,998.35
2018-02-10T04:03:31.226Z,998.35
2018-02-10T04:04:41.059Z,998.34
2018-02-10T04:05:51.102Z,998.35
2018-02-10T04:07:01.161Z,998.34
2018-02-10T04:08:11.206Z,998.34
2018-02-10T04:09:21.253Z,998.33
2018-02-10T04:10:31.287Z,998.32
2018-02-10T04:11:41.083Z,998.35
2018-02-10T04:12:51.134Z,998.35
2018-02-10T04:14:01.407Z,998.37
2018-02-10T04:15:11.456Z,998.32
2018-02-10T04:16:21.575Z,998.33
2018-02-10T04:17:31.621Z,998.38
2018-02-10T04:18:41.470Z,998.39
2018-02-10T04:19:51.246Z,998.38
2018-02-10T04:21:00.774Z,998.38
2018-02-10T04:22:10.811Z,998.37
2018-02-10T04:23:20.856Z,998.43
2018-02-10T04:24:30.643Z,998.45
2018-02-10T04:25:40.424Z,998.46
2018-02-10T04:26:50.462Z,998.46
2018-02-10T04:28:00.564Z,998.48
2018-02-10T04:29:10.849Z,998.46
2018-02-10T04:30:20.409Z,998.51
2018-02-10T04:31:30.448Z,998.5
2018-02-10T04:32:40.481Z,998.49
2018-02-10T04:33:50.619Z,998.43
2018-02-10T04:35:00.655Z,998.44
2018-02-10T04:36:10.765Z,998.48
2018-02-10T04:37:20.488Z,998.43
2018-02-10T04:38:30.269Z,998.46
2018-02-10T04:39:40.308Z,998.47
2018-02-10T04:40:49.833Z,998.46
2018-02-10T04:41:59.620Z,998.45
2018-02-10T04:43:09.662Z,998.46
2018-02-10T04:44:19.701Z,998.47
2018-02-10T04:45:29.748Z,998.49
2018-02-10T04:46:39.524Z,998.5
2018-02-10T04:47:49.575Z,998.5
2018-02-10T04:48:59.606Z,998.54
2018-02-10T04:50:09.652Z,998.53
2018-02-10T04:51:19.698Z,998.55
2018-02-10T04:52:29.734Z,998.57
2018-02-10T04:53:39.521Z,998.55
2018-02-10T04:54:49.359Z,998.56
2018-02-10T04:55:59.143Z,998.54
2018-02-10T04:57:09.197Z,998.57
2018-02-10T04:58:19.246Z,998.57
2018-02-10T04:59:29.302Z,998.56
2018-02-10T05:00:39.333Z,998.56
2018-02-10T05:01:49.149Z,998.6
2018-02-10T05:02:59.231Z,998.61
2018-02-10T05:04:09.023Z,998.64
2018-02-10T05:05:19.060Z,998.69
2018-02-10T05:06:28.856Z,998.68
2018-02-10T05:07:38.633Z,998.71
2018-02-10T05:08:48.686Z,998.71
2018-02-10T05:09:58.786Z,998.74
2018-02-10T05:11:08.843Z,998.75
2018-02-10T05:12:18.917Z,998.7
2018-02-10T05:13:28.973Z,998.72
2018-02-10T05:14:39.009Z,998.71
2018-02-10T05:15:49.046Z,998.69
2018-02-10T05:16:59.087Z,998.71
2018-02-10T05:18:09.132Z,998.73
2018-02-10T05:19:19.402Z,998.73
2018-02-10T05:20:29.448Z,998.72
2018-02-10T05:21:39.482Z,998.7
2018-02-10T05:22:49.531Z,998.73
2018-02-10T05:23:59.304Z,998.71
2018-02-10T05:25:09.346Z,998.7
2018-02-10T05:26:19.383Z,998.72
2018-02-10T05:27:29.403Z,998.72
2018-02-10T05:28:39.187Z,998.72
2018-02-10T05:29:48.977Z,998.66
2018-02-10T05:30:59.020Z,998.65
2018-02-10T05:32:09.108Z,998.62
2018-02-10T05:33:19.142Z,998.66
2018-02-10T05:34:28.938Z,998.63
2018-02-10T05:35:38.985Z,998.64
2018-02-10T05:36:49.030Z,998.67
2018-02-10T05:37:59.088Z,998.67
2018-02-10T05:39:08.622Z,998.69
2018-02-10T05:40:18.404Z,998.67
2018-02-10T05:41:28.468Z,998.67
2018-02-10T05:42:38.256Z,998.72
2018-02-10T05:43:48.308Z,998.72
2018-02-10T05:44:58.330Z,998.68
2018-02-10T05:46:08.122Z,998.73
2018-02-10T05:47:17.899Z,998.78
2018-02-10T05:48:27.975Z,998.77
2018-02-10T05:49:38.061Z,998.74
2018-02-10T05:50:48.143Z,998.75
2018-02-10T05:51:57.952Z,998.73
2018-02-10T05:53:07.728Z,998.79
2018-02-10T05:54:17.778Z,998.79
2018-02-10T05:55:27.817Z,998.76
2018-02-10T05:56:37.615Z,998.81
2018-02-10T05:57:47.399Z,998.81
2018-02-10T05:58:57.442Z,998.86
2018-02-10T06:00:07.469Z,998.85
2018-02-10T06:01:17.517Z,998.87
2018-02-10T06:02:27.301Z,998.85
2018-02-10T06:03:37.087Z,998.87
2018-02-10T06:04:47.149Z,998.94
2018-02-10T06:05:57.203Z,998.89
2018-02-10T06:07:06.476Z,998.91
2018-02-10T06:08:16.274Z,998.92
2018-02-10T06:09:26.298Z,998.9
2018-02-10T06:10:36.344Z,998.94
2018-02-10T06:11:46.236Z,998.97
2018-02-10T06:12:56.281Z,998.97
2018-02-10T06:14:06.343Z,998.96
2018-02-10T06:15:16.387Z,998.98
2018-02-10T06:16:26.432Z,999
2018-02-10T06:17:36.469Z,999
2018-02-10T06:18:46.003Z,999.03
2018-02-10T06:19:55.780Z,999.03
2018-02-10T06:21:05.301Z,999.03
2018-02-10T06:22:15.339Z,999.01
2018-02-10T06:23:25.379Z,999.02
2018-02-10T06:24:35.167Z,999.01
2018-02-10T06:25:44.956Z,999
2018-02-10T06:26:54.715Z,999.02
2018-02-10T06:28:04.746Z,999
2018-02-10T06:29:14.526Z,998.96
2018-02-10T06:30:24.577Z,999.01
2018-02-10T06:31:34.632Z,999.02
2018-02-10T06:32:44.689Z,999.03
2018-02-10T06:33:54.728Z,999.06
2018-02-10T06:35:04.834Z,999.07
2018-02-10T06:36:14.931Z,999.06
2018-02-10T06:37:24.979Z,999.08
2018-02-10T06:38:34.766Z,999.11
2018-02-10T06:39:44.829Z,999.12
2018-02-10T06:40:54.614Z,999.1
2018-02-10T06:42:04.648Z,999.09
2018-02-10T06:43:14.427Z,999.09
2018-02-10T06:44:24.244Z,999.11
2018-02-10T06:45:33.776Z,999.14
2018-02-10T06:46:43.567Z,999.13
2018-02-10T06:47:53.334Z,999.16
2018-02-10T06:49:03.372Z,999.18
2018-02-10T06:50:12.895Z,999.17
2018-02-10T06:51:22.936Z,999.21
2018-02-10T06:52:32.986Z,999.2
2018-02-10T06:53:43.041Z,999.24
2018-02-10T06:54:53.090Z,999.22
2018-02-10T06:56:02.885Z,999.26
2018-02-10T06:57:12.651Z,999.22
2018-02-10T06:58:22.722Z,999.28
2018-02-10T06:59:32.765Z,999.27
2018-02-10T07:00:42.830Z,999.33
2018-02-10T07:01:52.612Z,999.3
2018-02-10T07:03:02.663Z,999.28
2018-02-10T07:04:12.699Z,999.25
2018-02-10T07:05:22.740Z,999.23
2018-02-10T07:06:32.795Z,999.27
2018-02-10T07:07:42.663Z,999.21
2018-02-10T07:08:52.464Z,999.25
2018-02-10T07:10:02.528Z,999.22
2018-02-10T07:11:12.322Z,999.23
2018-02-10T07:12:21.887Z,999.26
2018-02-10T07:13:31.910Z,999.26
2018-02-10T07:14:41.954Z,999.22
2018-02-10T07:15:51.994Z,999.27
2018-02-10T07:17:02.028Z,999.29
2018-02-10T07:18:12.060Z,999.27
2018-02-10T07:19:21.841Z,999.27
2018-02-10T07:20:31.664Z,999.24
2018-02-10T07:21:41.706Z,999.26
2018-02-10T07:22:51.757Z,999.27
2018-02-10T07:24:01.806Z,999.26
2018-02-10T07:25:11.632Z,999.25
2018-02-10T07:26:21.694Z,999.22
2018-02-10T07:27:31.744Z,999.22
2018-02-10T07:28:41.831Z,999.23
2018-02-10T07:29:51.887Z,999.2
2018-02-10T07:31:01.671Z,999.16
2018-02-10T07:32:11.716Z,999.15
2018-02-10T07:33:21.761Z,999.19
2018-02-10T07:34:31.790Z,999.15
2018-02-10T07:35:41.562Z,999.21
2018-02-10T07:36:51.601Z,999.22
2018-02-10T07:38:01.645Z,999.2
2018-02-10T07:39:11.181Z,999.23
2018-02-10T07:40:21.228Z,999.22
2018-02-10T07:41:31.266Z,999.25
2018-02-10T07:42:41.328Z,999.29
2018-02-10T07:43:51.120Z,999.27
2018-02-10T07:45:01.168Z,999.24
2018-02-10T07:46:10.752Z,999.25
2018-02-10T07:47:20.809Z,999.3
2018-02-10T07:48:30.597Z,999.27
2018-02-10T07:49:40.392Z,999.3
2018-02-10T07:50:50.189Z,999.31
2018-02-10T07:52:00.243Z,999.29
2018-02-10T07:53:10.328Z,999.32
2018-02-10T07:54:20.380Z,999.28
2018-02-10T07:55:30.162Z,999.34
2018-02-10T07:56:40.218Z,999.34
2018-02-10T07:57:50.278Z,999.33
2018-02-10T07:59:00.309Z,999.37
2018-02-10T08:00:10.376Z,999.37
2018-02-10T08:01:20.421Z,999.4
2018-02-10T08:02:30.489Z,999.37
2018-02-10T08:03:40.341Z,999.43
2018-02-10T08:04:50.401Z,999.4
2018-02-10T08:06:00.196Z,999.36
2018-02-10T08:07:10.234Z,999.4
2018-02-10T08:08:20.056Z,999.44
2018-02-10T08:09:29.581Z,999.4
2018-02-10T08:10:39.405Z,999.42
2018-02-10T08:11:49.462Z,999.41
2018-02-10T08:12:59.244Z,999.4
2018-02-10T08:14:09.288Z,999.42
2018-02-10T08:15:19.348Z,999.4
2018-02-10T08:16:29.152Z,999.45
2018-02-10T08:17:39.185Z,999.39
2018-02-10T08:18:48.962Z,999.4
2018-02-10T08:19:58.745Z,999.46
2018-02-10T08:21:08.794Z,999.44
2018-02-10T08:22:18.846Z,999.45
2018-02-10T08:23:28.908Z,999.47
2018-02-10T08:24:38.691Z,999.46
2018-02-10T08:25:48.743Z,999.5
2018-02-10T08:26:58.844Z,999.49
2018-02-10T08:28:08.946Z,999.5
2018-02-10T08:29:18.744Z,999.5
2018-02-10T08:30:28.552Z,999.49
2018-02-10T08:31:38.083Z,999.47
2018-02-10T08:32:48.163Z,999.51
2018-02-10T08:33:58.194Z,999.5
2018-02-10T08:35:08.261Z,999.48
2018-02-10T08:36:18.309Z,999.49
2018-02-10T08:37:27.839Z,999.45
2018-02-10T08:38:37.657Z,999.45
2018-02-10T08:39:47.719Z,999.45
2018-02-10T08:40:57.506Z,999.41
2018-02-10T08:42:07.297Z,999.44
2018-02-10T08:43:17.105Z,999.42
2018-02-10T08:44:26.913Z,999.45
2018-02-10T08:45:36.961Z,999.39
2018-02-10T08:46:46.748Z,999.35
2018-02-10T08:47:56.786Z,999.36
2018-02-10T08:49:06.829Z,999.34
2018-02-10T08:50:16.874Z,999.3
2018-02-10T08:51:26.922Z,999.32
2018-02-10T08:52:36.716Z,999.31
2018-02-10T08:53:46.768Z,999.3
2018-02-10T08:54:56.546Z,999.34
2018-02-10T08:56:06.082Z,999.28
2018-02-10T08:57:15.875Z,999.31
2018-02-10T08:58:25.932Z,999.34
2018-02-10T08:59:35.975Z,999.32
2018-02-10T09:00:46.028Z,999.27
2018-02-10T09:01:55.864Z,999.33
2018-02-10T09:03:05.915Z,999.26
2018-02-10T09:04:15.974Z,999.28
2018-02-10T09:05:25.492Z,999.3
2018-02-10T09:06:35.565Z,999.32
2018-02-10T09:07:45.612Z,999.32
2018-02-10T09:08:55.426Z,999.31
2018-02-10T09:10:05.482Z,999.36
2018-02-10T09:11:15.532Z,999.35
2018-02-10T09:12:25.572Z,999.42
2018-02-10T09:13:35.350Z,999.34
2018-02-10T09:14:45.401Z,999.42
2018-02-10T09:15:55.198Z,999.42
2018-02-10T09:17:04.988Z,999.46
2018-02-10T09:18:15.041Z,999.46
2018-02-10T09:19:25.095Z,999.45
2018-02-10T09:20:34.895Z,999.46
2018-02-10T09:21:44.945Z,999.5
2018-02-10T09:22:54.995Z,999.48
2018-02-10T09:24:04.800Z,999.5
2018-02-10T09:25:14.841Z,999.51
2018-02-10T09:26:24.891Z,999.48
2018-02-10T09:27:34.950Z,999.48
2018-02-10T09:28:44.752Z,999.45
2018-02-10T09:29:54.821Z,999.47
2018-02-10T09:31:04.609Z,999.49
2018-02-10T09:32:14.408Z,999.47
2018-02-10T09:33:24.205Z,999.47
2018-02-10T09:34:33.727Z,999.46
2018-02-10T09:35:43.775Z,999.5
2018-02-10T09:36:53.579Z,999.45
2018-02-10T09:38:03.641Z,999.43
2018-02-10T09:39:13.434Z,999.41
2018-02-10T09:40:23.496Z,999.41
2018-02-10T09:41:33.566Z,999.4
2018-02-10T09:42:43.088Z,999.39
2018-02-10T09:43:52.892Z,999.37
2018-02-10T09:45:02.943Z,999.43
2018-02-10T09:46:12.838Z,999.39
2018-02-10T09:47:22.886Z,999.49
2018-02-10T09:48:32.727Z,999.43
2018-02-10T09:49:42.773Z,999.42
2018-02-10T09:50:52.598Z,999.48
2018-02-10T09:52:02.394Z,999.48
2018-02-10T09:53:12.527Z,999.5
2018-02-10T09:54:22.574Z,999.48
2018-02-10T09:55:32.639Z,999.44
2018-02-10T09:56:42.445Z,999.5
2018-02-10T09:57:52.487Z,999.47
2018-02-10T09:59:02.282Z,999.44
2018-02-10T10:00:12.112Z,999.44
2018-02-10T10:01:21.891Z,999.38
2018-02-10T10:02:31.685Z,999.43
2018-02-10T10:03:41.467Z,999.41
2018-02-10T10:04:51.562Z,999.38
2018-02-10T10:06:01.634Z,999.39
2018-02-10T10:07:11.504Z,999.39
2018-02-10T10:08:21.551Z,999.36
2018-02-10T10:09:31.349Z,999.34
2018-02-10T10:10:41.153Z,999.34
2018-02-10T10:11:51.213Z,999.35
2018-02-10T10:13:01.263Z,999.34
2018-02-10T10:14:11.074Z,999.37
2018-02-10T10:15:21.121Z,999.34
2018-02-10T10:16:30.977Z,999.33
2018-02-10T10:17:41.046Z,999.32
2018-02-10T10:18:50.828Z,999.29
2018-02-10T10:20:00.906Z,999.37
2018-02-10T10:21:11.004Z,999.32
2018-02-10T10:22:21.072Z,999.34
2018-02-10T10:23:30.873Z,999.36
2018-02-10T10:24:40.920Z,999.41
2018-02-10T10:25:51.011Z,999.4
2018-02-10T10:27:01.061Z,999.44
2018-02-10T10:28:10.586Z,999.41
2018-02-10T10:29:41.200Z,999.42
2018-02-10T10:30:51.235Z,999.43
2018-02-10T10:32:01.283Z,999.44
2018-02-10T10:33:11.083Z,999.41
2018-02-10T10:34:21.116Z,999.43
2018-02-10T10:35:30.918Z,999.36
2018-02-10T10:36:40.708Z,999.39
2018-02-10T10:37:50.831Z,999.37
2018-02-10T10:39:00.367Z,999.32
2018-02-10T10:40:10.439Z,999.31
2018-02-10T10:41:20.505Z,999.3
2018-02-10T10:42:30.349Z,999.29
2018-02-10T10:43:40.141Z,999.27
2018-02-10T10:44:50.270Z,999.31
2018-02-10T10:46:00.090Z,999.29
2018-02-10T10:47:10.166Z,999.29
2018-02-10T10:48:20.262Z,999.28
2018-02-10T10:49:30.325Z,999.26
2018-02-10T10:50:40.407Z,999.32
2018-02-10T10:51:50.527Z,999.28
2018-02-10T10:53:00.325Z,999.34
2018-02-10T10:54:10.370Z,999.27
2018-02-10T10:55:20.168Z,999.3
2018-02-10T10:56:30.211Z,999.31
2018-02-10T10:57:40.263Z,999.3
2018-02-10T10:58:50.093Z,999.3
2018-02-10T11:00:00.138Z,999.29
2018-02-10T11:01:10.187Z,999.29
2018-02-10T11:02:19.713Z,999.28
2018-02-10T11:03:29.774Z,999.29
2018-02-10T11:04:39.822Z,999.24
2018-02-10T11:05:49.624Z,999.24
2018-02-10T11:06:59.417Z,999.21
2018-02-10T11:08:09.488Z,999.21
2018-02-10T11:09:19.297Z,999.24
2018-02-10T11:10:29.342Z,999.25
2018-02-10T11:11:39.406Z,999.24
2018-02-10T11:12:49.476Z,999.22
2018-02-10T11:13:59.689Z,999.23
2018-02-10T11:15:09.580Z,999.23
2018-02-10T11:16:19.633Z,999.28
2018-02-10T11:17:29.690Z,999.25
2018-02-10T11:18:39.734Z,999.26
2018-02-10T11:19:49.799Z,999.27
2018-02-10T11:20:59.646Z,999.26
2018-02-10T11:22:09.690Z,999.21
2018-02-10T11:23:19.881Z,999.19
2018-02-10T11:24:29.669Z,999.17
2018-02-10T11:25:39.749Z,999.16
2018-02-10T11:26:49.830Z,999.19
2018-02-10T11:27:59.912Z,999.14
2018-02-10T11:29:09.974Z,999.16
2018-02-10T11:30:19.772Z,999.15
2018-02-10T11:31:29.839Z,999.18
2018-02-10T11:32:39.929Z,999.18
2018-02-10T11:33:49.990Z,999.21
2018-02-10T11:35:00.072Z,999.17
2018-02-10T11:36:09.924Z,999.19
2018-02-10T11:37:19.747Z,999.14
2018-02-10T11:38:29.845Z,999.13
2018-02-10T11:39:39.896Z,999.13
2018-02-10T11:40:50.031Z,999.18
2018-02-10T11:41:59.818Z,999.11
2018-02-10T11:43:09.866Z,999.1
2018-02-10T11:44:19.981Z,999.14
2018-02-10T11:45:30.055Z,999.09
2018-02-10T11:46:39.867Z,999.17
2018-02-10T11:47:49.932Z,999.11
2018-02-10T11:48:59.727Z,999.14
2018-02-10T11:50:09.879Z,999.13
2018-02-10T11:51:19.933Z,999.13
2018-02-10T11:52:29.996Z,999.09
2018-02-10T11:53:40.346Z,999.08
2018-02-10T11:54:50.487Z,999.06
2018-02-10T11:56:00.544Z,999.05
2018-02-10T11:57:10.602Z,999.08
2018-02-10T11:58:20.672Z,999.05
2018-02-10T11:59:30.725Z,999.02
2018-02-10T12:00:40.838Z,999.05
2018-02-10T12:01:50.628Z,999.06
2018-02-10T12:03:00.705Z,998.99
2018-02-10T12:04:10.772Z,999.01
2018-02-10T12:05:20.834Z,999
2018-02-10T12:06:30.687Z,999.02
2018-02-10T12:07:40.494Z,999.02
2018-02-10T12:08:50.568Z,998.97
2018-02-10T12:10:00.629Z,999.02
2018-02-10T12:11:10.693Z,998.98
2018-02-10T12:12:20.749Z,998.98
2018-02-10T12:13:30.857Z,999.01
2018-02-10T12:14:40.909Z,999
2018-02-10T12:15:50.964Z,999.02
2018-02-10T12:17:00.756Z,999.01
2018-02-10T12:18:10.840Z,998.99
2018-02-10T12:19:20.636Z,999.01
2018-02-10T12:20:30.692Z,998.99
2018-02-10T12:21:41.006Z,999.01
2018-02-10T12:22:51.072Z,999
2018-02-10T12:24:00.866Z,999
2018-02-10T12:25:10.658Z,998.99
2018-02-10T12:26:20.509Z,999.03
2018-02-10T12:27:30.616Z,998.97
2018-02-10T12:28:40.156Z,998.96
2018-02-10T12:29:50.215Z,998.97
2018-02-10T12:31:00.272Z,998.98
2018-02-10T12:32:10.330Z,998.96
2018-02-10T12:33:20.387Z,999
2018-02-10T12:34:30.182Z,998.97
2018-02-10T12:35:40.233Z,998.97
2018-02-10T12:36:50.023Z,998.91
2018-02-10T12:38:00.139Z,998.91
2018-02-10T12:39:10.191Z,998.93
2018-02-10T12:40:20.266Z,998.93
2018-02-10T12:41:30.440Z,998.9
2018-02-10T12:42:40.279Z,998.9
2018-02-10T12:43:50.342Z,998.87
2018-02-10T12:45:00.388Z,998.89
2018-02-10T12:46:10.459Z,998.87
2018-02-10T12:47:20.502Z,998.88
2018-02-10T12:48:30.310Z,998.85
2018-02-10T12:49:40.179Z,998.85
2018-02-10T12:50:50.278Z,998.85
2018-02-10T12:52:00.363Z,998.82
2018-02-10T12:53:10.426Z,998.86
2018-02-10T12:54:20.502Z,998.84
2018-02-10T12:55:30.601Z,998.82
2018-02-10T12:56:40.650Z,998.83
2018-02-10T12:57:50.715Z,998.86
2018-02-10T12:59:00.754Z,998.81
2018-02-10T13:00:10.601Z,998.84
2018-02-10T13:01:20.658Z,998.8
2018-02-10T13:02:30.440Z,998.8
2018-02-10T13:03:40.487Z,998.77
2018-02-10T13:04:50.534Z,998.82
2018-02-10T13:06:00.081Z,998.8
2018-02-10T13:07:09.966Z,998.8
2018-02-10T13:08:20.008Z,998.76
2018-02-10T13:09:29.787Z,998.71
2018-02-10T13:10:39.613Z,998.68
2018-02-10T13:11:49.695Z,998.69
2018-02-10T13:12:59.745Z,998.74
2018-02-10T13:14:09.817Z,998.78
2018-02-10T13:15:19.869Z,998.72
2018-02-10T13:16:29.930Z,998.73
2018-02-10T13:17:40.069Z,998.71
2018-02-10T13:18:49.908Z,998.67
2018-02-10T13:19:59.717Z,998.66
2018-02-10T13:21:09.783Z,998.65
2018-02-10T13:22:19.575Z,998.65
2018-02-10T13:23:29.646Z,998.65
2018-02-10T13:24:39.712Z,998.65
2018-02-10T13:25:49.510Z,998.65
2018-02-10T13:26:59.606Z,998.71
2018-02-10T13:28:09.689Z,998.69
2018-02-10T13:29:19.773Z,998.7
2018-02-10T13:30:29.837Z,998.7
2018-02-10T13:31:39.890Z,998.7
2018-02-10T13:32:49.951Z,998.73
2018-02-10T13:34:00.026Z,998.67
2018-02-10T13:35:10.133Z,998.67
2018-02-10T13:36:21.248Z,998.69
2018-02-10T13:37:31.305Z,998.67
2018-02-10T13:38:41.376Z,998.69
2018-02-10T13:39:51.155Z,998.71
2018-02-10T13:41:00.945Z,998.7
2018-02-10T13:42:10.985Z,998.74
2018-02-10T13:43:21.021Z,998.69
2018-02-10T13:44:31.070Z,998.71
2018-02-10T13:45:41.126Z,998.75
2018-02-10T13:46:50.966Z,998.75
2018-02-10T13:48:00.999Z,998.76
2018-02-10T13:49:11.137Z,998.72
2018-02-10T13:50:21.205Z,998.71
2018-02-10T13:51:31.259Z,998.71
2018-02-10T13:52:41.050Z,998.72
2018-02-10T13:53:51.124Z,998.7
2018-02-10T13:55:01.184Z,998.7
2018-02-10T13:56:11.042Z,998.67
2018-02-10T13:57:20.833Z,998.69
2018-02-10T13:58:30.885Z,998.66
2018-02-10T13:59:40.714Z,998.71
2018-02-10T14:00:50.780Z,998.7
2018-02-10T14:02:00.834Z,998.66
2018-02-10T14:03:10.887Z,998.7
2018-02-10T14:04:20.984Z,998.7
2018-02-10T14:05:31.049Z,998.67
2018-02-10T14:06:40.572Z,998.68
2018-02-10T14:07:50.380Z,998.64
2018-02-10T14:09:00.449Z,998.61
2018-02-10T14:10:10.507Z,998.62
2018-02-10T14:11:20.570Z,998.6
2018-02-10T14:12:30.365Z,998.62
2018-02-10T14:13:39.903Z,998.56
2018-02-10T14:14:49.700Z,998.63
2018-02-10T14:15:59.764Z,998.63
2018-02-10T14:17:09.556Z,998.67
2018-02-10T14:18:19.591Z,998.62
2018-02-10T14:19:29.762Z,998.61
2018-02-10T14:20:39.837Z,998.58
2018-02-10T14:21:49.890Z,998.6
2018-02-10T14:22:59.947Z,998.56
2018-02-10T14:24:10.010Z,998.61
2018-02-10T14:25:20.085Z,998.55
2018-02-10T14:26:29.888Z,998.55
2018-02-10T14:27:39.680Z,998.55
2018-02-10T14:28:49.755Z,998.5
2018-02-10T14:29:59.853Z,998.52
2018-02-10T14:31:09.672Z,998.49
2018-02-10T14:32:19.730Z,998.52
2018-02-10T14:33:29.788Z,998.49
2018-02-10T14:34:39.834Z,998.57
2018-02-10T14:35:49.631Z,998.56
2018-02-10T14:36:59.744Z,998.5
2018-02-10T14:38:09.545Z,998.58
2018-02-10T14:39:19.331Z,998.57
2018-02-10T14:40:29.387Z,998.48
2018-02-10T14:41:39.180Z,998.54
2018-02-10T14:42:49.248Z,998.59
2018-02-10T14:43:59.303Z,998.52
2018-02-10T14:45:09.362Z,998.55
2018-02-10T14:46:19.408Z,998.54
2018-02-10T14:47:29.505Z,998.57
2018-02-10T14:48:39.314Z,998.51
2018-02-10T14:49:49.389Z,998.49
2018-02-10T14:50:59.165Z,998.5
2018-02-10T14:52:08.960Z,998.51
2018-02-10T14:53:19.071Z,998.5
2018-02-10T14:54:28.867Z,998.47
2018-02-10T14:55:38.656Z,998.45
2018-02-10T14:56:48.753Z,998.49
2018-02-10T14:57:58.806Z,998.48
2018-02-10T14:59:08.640Z,998.49
2018-02-10T15:00:18.874Z,998.48
2018-02-10T15:01:28.944Z,998.51
2018-02-10T15:02:38.756Z,998.5
2018-02-10T15:03:49.065Z,998.48
2018-02-10T15:04:59.114Z,998.48
2018-02-10T15:06:09.161Z,998.51
2018-02-10T15:07:19.220Z,998.48